sensor_id;sensor_type;location;lat;lon;timestamp;temperature;humidity
27633;DHT22;15046;50.930;13.334;2023-07-16T00:02:05;24.50;66.60
27633;DHT22;15046;50.930;13.334;2023-07-16T00:04:31;24.30;67.00
27633;DHT22;15046;50.930;13.334;2023-07-16T00:06:59;24.20;67.50
27633;DHT22;15046;50.930;13.334;2023-07-16T00:09:26;24.10;68.10
27633;DHT22;15046;50.930;13.334;2023-07-16T00:11:51;24.00;68.30
27633;DHT22;15046;50.930;13.334;2023-07-16T00:14:17;24.00;68.80
27633;DHT22;15046;50.930;13.334;2023-07-16T00:16:43;24.00;69.00
27633;DHT22;15046;50.930;13.334;2023-07-16T00:19:14;24.00;69.30
27633;DHT22;15046;50.930;13.334;2023-07-16T00:21:39;24.00;69.90
27633;DHT22;15046;50.930;13.334;2023-07-16T00:24:05;23.90;70.20
27633;DHT22;15046;50.930;13.334;2023-07-16T00:26:31;23.80;70.80
27633;DHT22;15046;50.930;13.334;2023-07-16T00:28:57;23.80;71.40
27633;DHT22;15046;50.930;13.334;2023-07-16T00:31:23;23.80;71.60
27633;DHT22;15046;50.930;13.334;2023-07-16T00:33:48;23.90;71.70
27633;DHT22;15046;50.930;13.334;2023-07-16T00:36:14;23.90;71.80
27633;DHT22;15046;50.930;13.334;2023-07-16T00:38:40;23.70;72.10
27633;DHT22;15046;50.930;13.334;2023-07-16T00:41:07;23.70;72.30
27633;DHT22;15046;50.930;13.334;2023-07-16T00:43:32;23.70;72.50
27633;DHT22;15046;50.930;13.334;2023-07-16T00:45:58;23.60;72.70
27633;DHT22;15046;50.930;13.334;2023-07-16T00:48:24;23.50;73.20
27633;DHT22;15046;50.930;13.334;2023-07-16T00:50:52;23.40;73.50
27633;DHT22;15046;50.930;13.334;2023-07-16T00:53:18;23.40;73.60
27633;DHT22;15046;50.930;13.334;2023-07-16T00:55:45;23.40;73.80
27633;DHT22;15046;50.930;13.334;2023-07-16T00:58:11;23.00;74.40
27633;DHT22;15046;50.930;13.334;2023-07-16T01:00:39;22.30;76.40
27633;DHT22;15046;50.930;13.334;2023-07-16T01:03:06;21.60;79.30
27633;DHT22;15046;50.930;13.334;2023-07-16T01:05:51;21.10;82.30
27633;DHT22;15046;50.930;13.334;2023-07-16T01:08:38;20.80;84.40
27633;DHT22;15046;50.930;13.334;2023-07-16T01:11:07;20.70;87.20
27633;DHT22;15046;50.930;13.334;2023-07-16T01:13:34;20.60;89.10
27633;DHT22;15046;50.930;13.334;2023-07-16T01:16:00;20.70;90.70
27633;DHT22;15046;50.930;13.334;2023-07-16T01:18:25;20.50;92.10
27633;DHT22;15046;50.930;13.334;2023-07-16T01:20:51;20.50;93.80
27633;DHT22;15046;50.930;13.334;2023-07-16T01:23:37;20.50;95.60
27633;DHT22;15046;50.930;13.334;2023-07-16T01:31:55;20.20;99.90
27633;DHT22;15046;50.930;13.334;2023-07-16T01:34:23;20.10;99.90
27633;DHT22;15046;50.930;13.334;2023-07-16T01:36:50;20.10;99.90
27633;DHT22;15046;50.930;13.334;2023-07-16T01:39:16;20.00;99.90
27633;DHT22;15046;50.930;13.334;2023-07-16T01:41:42;19.90;99.90
27633;DHT22;15046;50.930;13.334;2023-07-16T01:44:08;19.80;99.90
27633;DHT22;15046;50.930;13.334;2023-07-16T01:46:34;19.80;99.90
27633;DHT22;15046;50.930;13.334;2023-07-16T01:48:59;19.70;99.90
27633;DHT22;15046;50.930;13.334;2023-07-16T01:51:25;19.50;99.90
27633;DHT22;15046;50.930;13.334;2023-07-16T01:53:51;19.40;99.90
27633;DHT22;15046;50.930;13.334;2023-07-16T01:56:17;19.40;99.90
27633;DHT22;15046;50.930;13.334;2023-07-16T01:58:43;19.30;99.90
27633;DHT22;15046;50.930;13.334;2023-07-16T02:01:08;19.40;99.90
27633;DHT22;15046;50.930;13.334;2023-07-16T02:03:34;19.40;99.90
27633;DHT22;15046;50.930;13.334;2023-07-16T02:06:00;19.40;99.90
27633;DHT22;15046;50.930;13.334;2023-07-16T02:08:25;19.50;99.90
27633;DHT22;15046;50.930;13.334;2023-07-16T02:10:51;19.40;99.90
27633;DHT22;15046;50.930;13.334;2023-07-16T02:13:17;19.40;99.90
27633;DHT22;15046;50.930;13.334;2023-07-16T02:15:43;19.50;99.90
27633;DHT22;15046;50.930;13.334;2023-07-16T02:18:09;19.50;99.90
27633;DHT22;15046;50.930;13.334;2023-07-16T02:20:35;19.30;99.90
27633;DHT22;15046;50.930;13.334;2023-07-16T02:23:01;19.30;99.90
27633;DHT22;15046;50.930;13.334;2023-07-16T02:25:26;19.30;99.90
27633;DHT22;15046;50.930;13.334;2023-07-16T02:27:52;19.30;99.90
27633;DHT22;15046;50.930;13.334;2023-07-16T02:30:18;19.20;99.90
27633;DHT22;15046;50.930;13.334;2023-07-16T02:32:44;19.20;99.90
27633;DHT22;15046;50.930;13.334;2023-07-16T02:35:10;19.10;99.90
27633;DHT22;15046;50.930;13.334;2023-07-16T02:37:36;19.10;99.90
27633;DHT22;15046;50.930;13.334;2023-07-16T02:40:02;19.10;99.90
27633;DHT22;15046;50.930;13.334;2023-07-16T02:42:28;19.20;99.90
27633;DHT22;15046;50.930;13.334;2023-07-16T02:44:54;19.20;99.90
27633;DHT22;15046;50.930;13.334;2023-07-16T02:47:20;19.30;99.90
27633;DHT22;15046;50.930;13.334;2023-07-16T02:49:46;19.30;99.90
27633;DHT22;15046;50.930;13.334;2023-07-16T02:52:11;19.20;99.90
27633;DHT22;15046;50.930;13.334;2023-07-16T02:54:38;19.30;99.90
27633;DHT22;15046;50.930;13.334;2023-07-16T02:57:04;19.20;99.90
27633;DHT22;15046;50.930;13.334;2023-07-16T02:59:30;19.20;99.90
27633;DHT22;15046;50.930;13.334;2023-07-16T03:01:56;19.10;99.90
27633;DHT22;15046;50.930;13.334;2023-07-16T03:04:22;19.10;99.90
27633;DHT22;15046;50.930;13.334;2023-07-16T03:06:47;19.00;99.90
27633;DHT22;15046;50.930;13.334;2023-07-16T03:09:13;19.00;99.90
27633;DHT22;15046;50.930;13.334;2023-07-16T03:11:39;19.00;99.90
27633;DHT22;15046;50.930;13.334;2023-07-16T03:14:05;18.80;99.90
27633;DHT22;15046;50.930;13.334;2023-07-16T03:16:31;18.80;99.90
27633;DHT22;15046;50.930;13.334;2023-07-16T03:18:57;18.70;99.90
27633;DHT22;15046;50.930;13.334;2023-07-16T03:21:23;18.70;99.90
27633;DHT22;15046;50.930;13.334;2023-07-16T03:23:49;18.70;99.90
27633;DHT22;15046;50.930;13.334;2023-07-16T03:26:14;18.60;99.90
27633;DHT22;15046;50.930;13.334;2023-07-16T03:28:40;18.70;99.90
27633;DHT22;15046;50.930;13.334;2023-07-16T03:31:06;18.70;99.90
27633;DHT22;15046;50.930;13.334;2023-07-16T03:33:32;18.70;99.90
27633;DHT22;15046;50.930;13.334;2023-07-16T03:35:57;18.70;99.90
27633;DHT22;15046;50.930;13.334;2023-07-16T03:38:23;18.70;99.90
27633;DHT22;15046;50.930;13.334;2023-07-16T03:40:49;18.70;99.90
27633;DHT22;15046;50.930;13.334;2023-07-16T03:43:16;18.70;99.90
27633;DHT22;15046;50.930;13.334;2023-07-16T03:45:42;18.70;99.90
27633;DHT22;15046;50.930;13.334;2023-07-16T03:48:08;18.70;99.90
27633;DHT22;15046;50.930;13.334;2023-07-16T03:50:35;18.70;99.90
27633;DHT22;15046;50.930;13.334;2023-07-16T03:53:02;18.70;99.90
27633;DHT22;15046;50.930;13.334;2023-07-16T03:55:29;18.70;99.90
27633;DHT22;15046;50.930;13.334;2023-07-16T03:57:55;18.70;99.90
27633;DHT22;15046;50.930;13.334;2023-07-16T04:00:20;18.70;99.90
27633;DHT22;15046;50.930;13.334;2023-07-16T04:02:46;18.70;99.90
27633;DHT22;15046;50.930;13.334;2023-07-16T04:05:12;18.70;99.90
27633;DHT22;15046;50.930;13.334;2023-07-16T04:07:38;18.70;99.90
27633;DHT22;15046;50.930;13.334;2023-07-16T04:10:04;18.70;99.90
27633;DHT22;15046;50.930;13.334;2023-07-16T04:12:30;18.80;99.90
27633;DHT22;15046;50.930;13.334;2023-07-16T04:14:57;18.70;99.90
27633;DHT22;15046;50.930;13.334;2023-07-16T04:17:23;18.70;99.90
27633;DHT22;15046;50.930;13.334;2023-07-16T04:19:49;18.80;99.90
27633;DHT22;15046;50.930;13.334;2023-07-16T04:22:15;18.80;99.90
27633;DHT22;15046;50.930;13.334;2023-07-16T04:24:41;18.80;99.90
27633;DHT22;15046;50.930;13.334;2023-07-16T04:27:06;18.70;99.90
27633;DHT22;15046;50.930;13.334;2023-07-16T04:29:32;18.70;99.90
27633;DHT22;15046;50.930;13.334;2023-07-16T04:31:58;18.70;99.90
27633;DHT22;15046;50.930;13.334;2023-07-16T04:34:24;18.70;99.90
27633;DHT22;15046;50.930;13.334;2023-07-16T04:36:50;18.80;99.90
27633;DHT22;15046;50.930;13.334;2023-07-16T04:39:16;18.80;99.90
27633;DHT22;15046;50.930;13.334;2023-07-16T04:41:41;18.80;99.90
27633;DHT22;15046;50.930;13.334;2023-07-16T04:44:07;18.80;99.90
27633;DHT22;15046;50.930;13.334;2023-07-16T04:46:33;18.70;99.90
27633;DHT22;15046;50.930;13.334;2023-07-16T04:48:59;18.80;99.90
27633;DHT22;15046;50.930;13.334;2023-07-16T04:51:25;18.70;99.90
27633;DHT22;15046;50.930;13.334;2023-07-16T04:53:51;18.60;99.90
27633;DHT22;15046;50.930;13.334;2023-07-16T04:56:17;18.60;99.90
27633;DHT22;15046;50.930;13.334;2023-07-16T04:58:42;18.60;99.90
27633;DHT22;15046;50.930;13.334;2023-07-16T05:01:09;18.60;99.90
27633;DHT22;15046;50.930;13.334;2023-07-16T05:03:35;18.60;99.90
27633;DHT22;15046;50.930;13.334;2023-07-16T05:06:02;18.60;99.90
27633;DHT22;15046;50.930;13.334;2023-07-16T05:08:28;18.70;99.90
27633;DHT22;15046;50.930;13.334;2023-07-16T05:10:54;18.70;99.90
27633;DHT22;15046;50.930;13.334;2023-07-16T05:13:19;18.70;99.90
27633;DHT22;15046;50.930;13.334;2023-07-16T05:15:45;18.70;99.90
27633;DHT22;15046;50.930;13.334;2023-07-16T05:18:11;18.60;99.90
27633;DHT22;15046;50.930;13.334;2023-07-16T05:20:37;18.70;99.90
27633;DHT22;15046;50.930;13.334;2023-07-16T05:23:03;18.70;99.90
27633;DHT22;15046;50.930;13.334;2023-07-16T05:25:29;18.70;99.90
27633;DHT22;15046;50.930;13.334;2023-07-16T05:27:55;18.70;99.90
27633;DHT22;15046;50.930;13.334;2023-07-16T05:30:21;18.80;99.90
27633;DHT22;15046;50.930;13.334;2023-07-16T05:32:46;18.90;99.90
27633;DHT22;15046;50.930;13.334;2023-07-16T05:35:12;19.00;99.90
27633;DHT22;15046;50.930;13.334;2023-07-16T05:37:38;19.10;99.90
27633;DHT22;15046;50.930;13.334;2023-07-16T05:40:04;19.20;99.90
27633;DHT22;15046;50.930;13.334;2023-07-16T05:42:32;19.20;99.90
27633;DHT22;15046;50.930;13.334;2023-07-16T05:44:58;19.30;99.90
27633;DHT22;15046;50.930;13.334;2023-07-16T05:47:24;19.30;99.90
27633;DHT22;15046;50.930;13.334;2023-07-16T05:49:50;19.50;99.90
27633;DHT22;15046;50.930;13.334;2023-07-16T05:52:15;19.60;99.90
27633;DHT22;15046;50.930;13.334;2023-07-16T05:54:43;19.60;99.90
27633;DHT22;15046;50.930;13.334;2023-07-16T05:57:10;19.70;99.90
27633;DHT22;15046;50.930;13.334;2023-07-16T05:59:36;19.70;99.90
27633;DHT22;15046;50.930;13.334;2023-07-16T06:02:04;19.90;99.90
27633;DHT22;15046;50.930;13.334;2023-07-16T06:04:30;20.00;99.90
27633;DHT22;15046;50.930;13.334;2023-07-16T06:06:56;20.20;99.90
27633;DHT22;15046;50.930;13.334;2023-07-16T06:09:23;20.40;99.90
27633;DHT22;15046;50.930;13.334;2023-07-16T06:11:49;20.50;99.90
27633;DHT22;15046;50.930;13.334;2023-07-16T06:14:15;20.50;99.90
27633;DHT22;15046;50.930;13.334;2023-07-16T06:16:41;20.50;99.90
27633;DHT22;15046;50.930;13.334;2023-07-16T06:19:08;20.60;99.90
27633;DHT22;15046;50.930;13.334;2023-07-16T06:21:34;20.60;99.90
27633;DHT22;15046;50.930;13.334;2023-07-16T06:24:00;20.60;99.90
27633;DHT22;15046;50.930;13.334;2023-07-16T06:26:26;20.60;99.90
27633;DHT22;15046;50.930;13.334;2023-07-16T06:28:52;20.70;99.90
27633;DHT22;15046;50.930;13.334;2023-07-16T06:31:18;20.70;99.90
27633;DHT22;15046;50.930;13.334;2023-07-16T06:33:44;20.70;99.90
27633;DHT22;15046;50.930;13.334;2023-07-16T06:36:12;20.60;99.90
27633;DHT22;15046;50.930;13.334;2023-07-16T06:38:38;20.60;99.90
27633;DHT22;15046;50.930;13.334;2023-07-16T06:41:04;20.60;99.90
27633;DHT22;15046;50.930;13.334;2023-07-16T06:43:30;20.60;99.90
27633;DHT22;15046;50.930;13.334;2023-07-16T06:45:56;20.60;99.90
27633;DHT22;15046;50.930;13.334;2023-07-16T06:48:23;20.60;99.90
27633;DHT22;15046;50.930;13.334;2023-07-16T06:50:52;20.60;99.90
27633;DHT22;15046;50.930;13.334;2023-07-16T06:53:19;20.60;99.90
27633;DHT22;15046;50.930;13.334;2023-07-16T06:55:47;20.70;99.90
27633;DHT22;15046;50.930;13.334;2023-07-16T06:58:14;20.80;99.90
27633;DHT22;15046;50.930;13.334;2023-07-16T07:00:41;21.10;99.90
27633;DHT22;15046;50.930;13.334;2023-07-16T07:03:06;21.20;99.90
27633;DHT22;15046;50.930;13.334;2023-07-16T07:05:32;21.20;99.90
27633;DHT22;15046;50.930;13.334;2023-07-16T07:07:58;21.10;99.90
27633;DHT22;15046;50.930;13.334;2023-07-16T07:10:24;21.00;99.90
27633;DHT22;15046;50.930;13.334;2023-07-16T07:12:49;21.00;99.90
27633;DHT22;15046;50.930;13.334;2023-07-16T07:15:15;20.90;99.90
27633;DHT22;15046;50.930;13.334;2023-07-16T07:17:41;21.00;99.90
27633;DHT22;15046;50.930;13.334;2023-07-16T07:20:08;21.00;99.90
27633;DHT22;15046;50.930;13.334;2023-07-16T07:22:34;21.00;99.90
27633;DHT22;15046;50.930;13.334;2023-07-16T07:25:00;21.20;99.90
27633;DHT22;15046;50.930;13.334;2023-07-16T07:27:26;21.30;99.90
27633;DHT22;15046;50.930;13.334;2023-07-16T07:29:52;21.40;99.90
27633;DHT22;15046;50.930;13.334;2023-07-16T07:32:19;21.50;99.90
27633;DHT22;15046;50.930;13.334;2023-07-16T07:34:46;21.60;99.90
27633;DHT22;15046;50.930;13.334;2023-07-16T07:37:12;21.60;99.90
27633;DHT22;15046;50.930;13.334;2023-07-16T07:39:37;21.70;99.90
27633;DHT22;15046;50.930;13.334;2023-07-16T07:42:04;21.90;99.90
27633;DHT22;15046;50.930;13.334;2023-07-16T07:44:30;21.90;99.90
27633;DHT22;15046;50.930;13.334;2023-07-16T07:46:56;21.90;99.90
27633;DHT22;15046;50.930;13.334;2023-07-16T07:49:21;22.00;99.90
27633;DHT22;15046;50.930;13.334;2023-07-16T07:51:47;22.00;99.90
27633;DHT22;15046;50.930;13.334;2023-07-16T07:54:15;22.00;99.90
27633;DHT22;15046;50.930;13.334;2023-07-16T07:56:41;22.00;99.90
27633;DHT22;15046;50.930;13.334;2023-07-16T07:59:07;21.90;99.90
27633;DHT22;15046;50.930;13.334;2023-07-16T08:01:33;22.10;99.90
27633;DHT22;15046;50.930;13.334;2023-07-16T08:03:59;22.20;99.90
27633;DHT22;15046;50.930;13.334;2023-07-16T08:06:25;22.40;99.90
27633;DHT22;15046;50.930;13.334;2023-07-16T08:08:52;22.50;99.90
27633;DHT22;15046;50.930;13.334;2023-07-16T08:11:17;22.60;99.90
27633;DHT22;15046;50.930;13.334;2023-07-16T08:13:43;22.80;99.90
27633;DHT22;15046;50.930;13.334;2023-07-16T08:16:09;23.10;99.90
27633;DHT22;15046;50.930;13.334;2023-07-16T08:18:35;23.20;99.90
27633;DHT22;15046;50.930;13.334;2023-07-16T08:21:01;23.40;99.90
27633;DHT22;15046;50.930;13.334;2023-07-16T08:23:27;23.70;99.90
27633;DHT22;15046;50.930;13.334;2023-07-16T08:25:53;24.00;99.90
27633;DHT22;15046;50.930;13.334;2023-07-16T08:28:19;24.10;99.90
27633;DHT22;15046;50.930;13.334;2023-07-16T08:30:47;24.20;99.90
27633;DHT22;15046;50.930;13.334;2023-07-16T08:33:14;24.10;99.90
27633;DHT22;15046;50.930;13.334;2023-07-16T08:35:41;24.00;99.90
27633;DHT22;15046;50.930;13.334;2023-07-16T08:38:07;23.90;99.90
27633;DHT22;15046;50.930;13.334;2023-07-16T08:40:37;23.80;99.90
27633;DHT22;15046;50.930;13.334;2023-07-16T08:43:05;23.70;99.90
27633;DHT22;15046;50.930;13.334;2023-07-16T08:45:38;23.60;99.90
27633;DHT22;15046;50.930;13.334;2023-07-16T08:48:06;23.50;99.90
27633;DHT22;15046;50.930;13.334;2023-07-16T08:50:33;23.50;99.40
27633;DHT22;15046;50.930;13.334;2023-07-16T08:53:01;23.50;98.60
27633;DHT22;15046;50.930;13.334;2023-07-16T08:55:27;23.60;97.70
27633;DHT22;15046;50.930;13.334;2023-07-16T08:57:53;23.60;97.50
27633;DHT22;15046;50.930;13.334;2023-07-16T09:00:19;23.60;96.50
27633;DHT22;15046;50.930;13.334;2023-07-16T09:02:46;23.70;95.80
27633;DHT22;15046;50.930;13.334;2023-07-16T09:05:13;23.90;95.30
27633;DHT22;15046;50.930;13.334;2023-07-16T09:07:39;23.90;94.90
27633;DHT22;15046;50.930;13.334;2023-07-16T09:10:06;23.90;94.70
27633;DHT22;15046;50.930;13.334;2023-07-16T09:12:32;23.90;94.60
27633;DHT22;15046;50.930;13.334;2023-07-16T09:14:58;23.90;94.20
27633;DHT22;15046;50.930;13.334;2023-07-16T09:17:24;24.10;93.50
27633;DHT22;15046;50.930;13.334;2023-07-16T09:19:51;24.20;92.60
27633;DHT22;15046;50.930;13.334;2023-07-16T09:22:20;24.50;93.30
27633;DHT22;15046;50.930;13.334;2023-07-16T09:24:47;24.70;92.30
27633;DHT22;15046;50.930;13.334;2023-07-16T09:27:13;24.90;91.90
27633;DHT22;15046;50.930;13.334;2023-07-16T09:29:39;25.00;91.50
27633;DHT22;15046;50.930;13.334;2023-07-16T09:32:06;25.20;90.90
27633;DHT22;15046;50.930;13.334;2023-07-16T09:34:32;25.40;90.30
27633;DHT22;15046;50.930;13.334;2023-07-16T09:36:59;25.50;89.60
27633;DHT22;15046;50.930;13.334;2023-07-16T09:39:26;25.40;87.60
27633;DHT22;15046;50.930;13.334;2023-07-16T09:41:52;25.20;86.60
27633;DHT22;15046;50.930;13.334;2023-07-16T09:44:19;25.00;86.40
27633;DHT22;15046;50.930;13.334;2023-07-16T09:46:46;25.10;86.30
27633;DHT22;15046;50.930;13.334;2023-07-16T09:49:14;25.10;86.40
27633;DHT22;15046;50.930;13.334;2023-07-16T09:51:42;25.40;86.60
27633;DHT22;15046;50.930;13.334;2023-07-16T09:54:14;25.60;84.60
27633;DHT22;15046;50.930;13.334;2023-07-16T09:56:52;25.50;82.60
27633;DHT22;15046;50.930;13.334;2023-07-16T09:59:24;25.30;82.10
27633;DHT22;15046;50.930;13.334;2023-07-16T10:01:50;25.50;82.20
27633;DHT22;15046;50.930;13.334;2023-07-16T10:04:18;25.60;81.40
27633;DHT22;15046;50.930;13.334;2023-07-16T10:06:55;25.60;80.80
27633;DHT22;15046;50.930;13.334;2023-07-16T10:09:51;25.70;79.90
27633;DHT22;15046;50.930;13.334;2023-07-16T10:12:19;25.80;79.80
27633;DHT22;15046;50.930;13.334;2023-07-16T10:17:16;27.20;78.70
27633;DHT22;15046;50.930;13.334;2023-07-16T10:23:12;29.20;75.30
27633;DHT22;15046;50.930;13.334;2023-07-16T10:25:39;30.80;72.30
27633;DHT22;15046;50.930;13.334;2023-07-16T10:28:05;31.20;68.90
27633;DHT22;15046;50.930;13.334;2023-07-16T10:30:32;31.10;67.10
27633;DHT22;15046;50.930;13.334;2023-07-16T10:33:02;30.60;65.20
27633;DHT22;15046;50.930;13.334;2023-07-16T10:35:27;30.10;66.20
27633;DHT22;15046;50.930;13.334;2023-07-16T10:37:54;30.90;65.20
27633;DHT22;15046;50.930;13.334;2023-07-16T10:40:20;31.00;64.20
27633;DHT22;15046;50.930;13.334;2023-07-16T10:42:46;30.70;62.80
27633;DHT22;15046;50.930;13.334;2023-07-16T10:45:12;29.90;64.20
27633;DHT22;15046;50.930;13.334;2023-07-16T10:47:40;29.60;65.90
27633;DHT22;15046;50.930;13.334;2023-07-16T10:50:16;30.40;64.70
27633;DHT22;15046;50.930;13.334;2023-07-16T10:52:42;30.90;62.50
27633;DHT22;15046;50.930;13.334;2023-07-16T10:55:08;30.60;61.70
27633;DHT22;15046;50.930;13.334;2023-07-16T10:57:35;29.80;62.40
27633;DHT22;15046;50.930;13.334;2023-07-16T11:00:01;29.10;63.50
27633;DHT22;15046;50.930;13.334;2023-07-16T11:02:27;28.40;64.70
27633;DHT22;15046;50.930;13.334;2023-07-16T11:04:53;28.10;65.60
27633;DHT22;15046;50.930;13.334;2023-07-16T11:07:20;27.80;66.00
27633;DHT22;15046;50.930;13.334;2023-07-16T11:09:48;27.90;66.70
27633;DHT22;15046;50.930;13.334;2023-07-16T11:12:16;28.00;67.00
27633;DHT22;15046;50.930;13.334;2023-07-16T11:14:55;27.70;66.40
27633;DHT22;15046;50.930;13.334;2023-07-16T11:17:23;27.20;66.90
27633;DHT22;15046;50.930;13.334;2023-07-16T11:19:51;26.90;67.50
27633;DHT22;15046;50.930;13.334;2023-07-16T11:22:18;26.80;67.60
27633;DHT22;15046;50.930;13.334;2023-07-16T11:24:50;26.80;68.20
27633;DHT22;15046;50.930;13.334;2023-07-16T11:27:21;27.10;67.40
27633;DHT22;15046;50.930;13.334;2023-07-16T11:29:53;27.40;67.30
27633;DHT22;15046;50.930;13.334;2023-07-16T11:32:36;28.40;67.10
27633;DHT22;15046;50.930;13.334;2023-07-16T11:35:04;30.20;65.40
27633;DHT22;15046;50.930;13.334;2023-07-16T11:37:33;31.40;62.90
27633;DHT22;15046;50.930;13.334;2023-07-16T11:40:10;32.30;60.50
27633;DHT22;15046;50.930;13.334;2023-07-16T11:42:38;33.20;59.30
27633;DHT22;15046;50.930;13.334;2023-07-16T11:45:14;33.80;59.00
27633;DHT22;15046;50.930;13.334;2023-07-16T11:47:40;34.30;57.10
27633;DHT22;15046;50.930;13.334;2023-07-16T11:50:06;34.30;56.40
27633;DHT22;15046;50.930;13.334;2023-07-16T11:52:32;34.60;56.10
27633;DHT22;15046;50.930;13.334;2023-07-16T11:54:59;34.80;55.30
27633;DHT22;15046;50.930;13.334;2023-07-16T11:57:25;34.80;54.20
27633;DHT22;15046;50.930;13.334;2023-07-16T11:59:51;34.90;54.20
27633;DHT22;15046;50.930;13.334;2023-07-16T12:02:17;35.00;53.20
27633;DHT22;15046;50.930;13.334;2023-07-16T12:04:44;35.00;52.70
27633;DHT22;15046;50.930;13.334;2023-07-16T12:07:10;34.60;52.80
27633;DHT22;15046;50.930;13.334;2023-07-16T12:09:35;33.30;53.50
27633;DHT22;15046;50.930;13.334;2023-07-16T12:12:01;32.20;55.60
27633;DHT22;15046;50.930;13.334;2023-07-16T12:14:28;32.00;56.50
27633;DHT22;15046;50.930;13.334;2023-07-16T12:16:54;32.40;55.60
27633;DHT22;15046;50.930;13.334;2023-07-16T12:19:20;32.40;56.00
27633;DHT22;15046;50.930;13.334;2023-07-16T12:21:46;33.10;54.80
27633;DHT22;15046;50.930;13.334;2023-07-16T12:24:13;33.40;54.70
27633;DHT22;15046;50.930;13.334;2023-07-16T12:26:39;34.20;53.80
27633;DHT22;15046;50.930;13.334;2023-07-16T12:29:05;34.80;53.10
27633;DHT22;15046;50.930;13.334;2023-07-16T12:31:31;35.30;52.30
27633;DHT22;15046;50.930;13.334;2023-07-16T12:33:58;35.70;52.10
27633;DHT22;15046;50.930;13.334;2023-07-16T12:36:25;36.00;51.90
27633;DHT22;15046;50.930;13.334;2023-07-16T12:38:51;36.30;50.90
27633;DHT22;15046;50.930;13.334;2023-07-16T12:41:17;36.20;50.00
27633;DHT22;15046;50.930;13.334;2023-07-16T12:43:43;36.10;50.30
27633;DHT22;15046;50.930;13.334;2023-07-16T12:46:09;35.20;50.30
27633;DHT22;15046;50.930;13.334;2023-07-16T12:48:35;34.30;52.10
27633;DHT22;15046;50.930;13.334;2023-07-16T12:51:01;34.60;52.60
27633;DHT22;15046;50.930;13.334;2023-07-16T12:53:27;35.20;52.70
27633;DHT22;15046;50.930;13.334;2023-07-16T12:55:53;35.80;50.50
27633;DHT22;15046;50.930;13.334;2023-07-16T12:58:19;36.10;50.10
27633;DHT22;15046;50.930;13.334;2023-07-16T13:00:45;35.60;49.40
27633;DHT22;15046;50.930;13.334;2023-07-16T13:03:11;35.40;50.20
27633;DHT22;15046;50.930;13.334;2023-07-16T13:05:40;35.80;50.80
27633;DHT22;15046;50.930;13.334;2023-07-16T13:08:06;36.30;50.40
27633;DHT22;15046;50.930;13.334;2023-07-16T13:10:32;36.70;49.00
27633;DHT22;15046;50.930;13.334;2023-07-16T13:12:58;36.70;48.50
27633;DHT22;15046;50.930;13.334;2023-07-16T13:15:24;37.00;47.80
27633;DHT22;15046;50.930;13.334;2023-07-16T13:17:49;36.80;47.10
27633;DHT22;15046;50.930;13.334;2023-07-16T13:20:15;36.50;46.80
27633;DHT22;15046;50.930;13.334;2023-07-16T13:22:41;36.50;47.10
27633;DHT22;15046;50.930;13.334;2023-07-16T13:25:07;36.50;46.70
27633;DHT22;15046;50.930;13.334;2023-07-16T13:27:33;36.40;46.90
27633;DHT22;15046;50.930;13.334;2023-07-16T13:29:59;36.40;45.90
27633;DHT22;15046;50.930;13.334;2023-07-16T13:32:24;36.10;47.00
27633;DHT22;15046;50.930;13.334;2023-07-16T13:34:50;36.40;46.70
27633;DHT22;15046;50.930;13.334;2023-07-16T13:37:16;36.40;45.70
27633;DHT22;15046;50.930;13.334;2023-07-16T13:39:42;36.40;45.40
27633;DHT22;15046;50.930;13.334;2023-07-16T13:42:08;36.40;45.50
27633;DHT22;15046;50.930;13.334;2023-07-16T13:44:36;36.00;45.90
27633;DHT22;15046;50.930;13.334;2023-07-16T13:47:03;35.70;46.40
27633;DHT22;15046;50.930;13.334;2023-07-16T13:49:29;35.70;46.20
27633;DHT22;15046;50.930;13.334;2023-07-16T13:51:55;35.80;45.60
27633;DHT22;15046;50.930;13.334;2023-07-16T13:54:21;35.60;45.50
27633;DHT22;15046;50.930;13.334;2023-07-16T13:56:48;35.70;45.70
27633;DHT22;15046;50.930;13.334;2023-07-16T13:59:14;35.70;45.20
27633;DHT22;15046;50.930;13.334;2023-07-16T14:01:40;35.80;46.50
27633;DHT22;15046;50.930;13.334;2023-07-16T14:04:06;36.10;45.00
27633;DHT22;15046;50.930;13.334;2023-07-16T14:06:32;36.10;44.70
27633;DHT22;15046;50.930;13.334;2023-07-16T14:08:59;36.00;45.10
27633;DHT22;15046;50.930;13.334;2023-07-16T14:11:25;36.30;45.10
27633;DHT22;15046;50.930;13.334;2023-07-16T14:13:51;36.40;45.00
27633;DHT22;15046;50.930;13.334;2023-07-16T14:16:20;36.70;44.20
27633;DHT22;15046;50.930;13.334;2023-07-16T14:18:50;36.70;44.80
27633;DHT22;15046;50.930;13.334;2023-07-16T14:21:16;36.90;45.30
27633;DHT22;15046;50.930;13.334;2023-07-16T14:23:42;37.10;43.70
27633;DHT22;15046;50.930;13.334;2023-07-16T14:26:08;37.40;43.60
27633;DHT22;15046;50.930;13.334;2023-07-16T14:28:33;37.70;43.20
27633;DHT22;15046;50.930;13.334;2023-07-16T14:30:59;37.50;42.20
27633;DHT22;15046;50.930;13.334;2023-07-16T14:33:25;37.10;42.10
27633;DHT22;15046;50.930;13.334;2023-07-16T14:35:51;37.10;43.20
27633;DHT22;15046;50.930;13.334;2023-07-16T14:38:18;37.40;44.10
27633;DHT22;15046;50.930;13.334;2023-07-16T14:40:43;37.60;43.10
27633;DHT22;15046;50.930;13.334;2023-07-16T14:43:09;37.60;42.80
27633;DHT22;15046;50.930;13.334;2023-07-16T14:45:35;37.70;42.40
27633;DHT22;15046;50.930;13.334;2023-07-16T14:48:01;38.00;42.60
27633;DHT22;15046;50.930;13.334;2023-07-16T14:50:27;37.80;42.10
27633;DHT22;15046;50.930;13.334;2023-07-16T14:52:54;37.70;43.00
27633;DHT22;15046;50.930;13.334;2023-07-16T14:55:19;37.80;42.40
27633;DHT22;15046;50.930;13.334;2023-07-16T14:57:45;37.80;42.40
27633;DHT22;15046;50.930;13.334;2023-07-16T15:00:11;37.90;42.60
27633;DHT22;15046;50.930;13.334;2023-07-16T15:02:39;38.20;42.50
27633;DHT22;15046;50.930;13.334;2023-07-16T15:05:05;38.30;41.50
27633;DHT22;15046;50.930;13.334;2023-07-16T15:07:32;38.00;41.80
27633;DHT22;15046;50.930;13.334;2023-07-16T15:09:59;38.00;42.00
27633;DHT22;15046;50.930;13.334;2023-07-16T15:12:25;38.20;41.80
27633;DHT22;15046;50.930;13.334;2023-07-16T15:14:52;38.30;41.90
27633;DHT22;15046;50.930;13.334;2023-07-16T15:17:18;38.40;41.60
27633;DHT22;15046;50.930;13.334;2023-07-16T15:19:44;38.20;41.40
27633;DHT22;15046;50.930;13.334;2023-07-16T15:22:10;37.90;41.70
27633;DHT22;15046;50.930;13.334;2023-07-16T15:24:37;37.90;41.50